Time;durP1;ratioP1;P1;durP2;ratioP2;P2;SDS_P1;SDS_P2;PMS_P1;PMS_P2;Temp;Humidity;BMP_temperature;BMP_pressure;BME280_temperature;BME280_humidity;BME280_pressure;Samples;Min_cycle;Max_cycle;Signal;HPM_P1;HPM_P2
2022/09/25 00:03:10;;;;;;;4.55;2.80;;;;;;;19.01;62.59;96257.06;10535500;28;20024;-30
2022/09/25 00:08:12;;;;;;;3.92;3.08;;;;;;;19.03;61.98;96255.34;10534749;28;20039;-30
2022/09/25 00:13:15;;;;;;;5.47;2.80;;;;;;;19.04;60.85;96260.41;10534734;28;20042;-30
2022/09/25 00:18:15;;;;;;;3.53;2.80;;;;;;;19.01;60.88;96252.00;10534478;28;20115;-30
2022/09/25 00:23:16;;;;;;;4.28;2.90;;;;;;;18.99;61.00;96253.72;10566244;28;20032;-30
2022/09/25 00:28:17;;;;;;;3.90;2.40;;;;;;;18.98;60.94;96257.06;10550818;28;20031;-30
2022/09/25 00:33:18;;;;;;;2.97;2.15;;;;;;;18.96;61.05;96253.72;10534484;28;20032;-30
2022/09/25 00:38:18;;;;;;;3.77;2.70;;;;;;;18.97;61.34;96255.41;10576421;28;20406;-30
2022/09/25 00:43:39;;;;;;;3.87;2.93;;;;;;;18.97;61.09;96250.31;10557404;27;20488;-29
2022/09/25 00:48:48;;;;;;;3.55;3.08;;;;;;;18.97;61.75;96250.31;10619118;27;20317;-30
2022/09/25 00:53:49;;;;;;;4.13;2.78;;;;;;;18.97;62.42;96241.03;10582240;27;20495;-30
2022/09/25 00:58:50;;;;;;;3.72;2.35;;;;;;;19.03;62.23;96235.06;10545104;28;20032;-30
2022/09/25 01:03:50;;;;;;;4.85;2.70;;;;;;;19.03;61.14;96229.97;10533263;28;20066;-30
2022/09/25 01:08:51;;;;;;;3.97;2.30;;;;;;;19.01;60.94;96227.44;10533569;28;20040;-30
2022/09/25 01:13:55;;;;;;;3.90;2.63;;;;;;;18.99;61.12;96229.16;10562564;28;20334;-30
2022/09/25 01:19:09;;;;;;;3.22;2.60;;;;;;;18.98;60.91;96222.41;10575295;28;20274;-30
2022/09/25 01:24:29;;;;;;;4.05;2.60;;;;;;;18.98;60.93;96204.66;10573473;28;20042;-29
2022/09/25 01:29:49;;;;;;;3.05;2.50;;;;;;;18.96;61.13;96208.06;10538831;28;20028;-30
2022/09/25 01:35:06;;;;;;;3.05;2.17;;;;;;;18.99;61.12;96218.19;10531832;28;20040;-29
2022/09/25 01:40:24;;;;;;;3.05;2.13;;;;;;;18.97;61.50;96204.66;10532927;28;20062;-30
2022/09/25 01:45:33;;;;;;;6.57;2.83;;;;;;;19.01;62.38;96217.31;10575388;28;20035;-30
2022/09/25 01:50:43;;;;;;;6.85;3.85;;;;;;;19.01;62.01;96198.72;10568942;28;20116;-30
2022/09/25 01:55:49;;;;;;;4.15;2.80;;;;;;;19.04;61.11;96201.22;10532201;28;20032;-31
2022/09/25 02:00:56;;;;;;;3.17;2.10;;;;;;;18.98;60.95;96196.19;10532491;28;20039;-30
2022/09/25 02:06:04;;;;;;;3.60;2.50;;;;;;;18.99;61.10;96213.94;10540184;28;20039;-29
2022/09/25 02:11:06;;;;;;;4.45;3.08;;;;;;;19.00;61.03;96202.94;10540393;28;20188;-29
2022/09/25 02:16:15;;;;;;;3.50;2.00;;;;;;;18.97;61.13;96217.34;10539862;28;20036;-29
2022/09/25 02:21:24;;;;;;;3.28;2.13;;;;;;;18.98;61.22;96222.41;10540450;28;20040;-29
2022/09/25 02:26:31;;;;;;;3.38;2.20;;;;;;;18.95;61.15;96216.53;10539526;28;20032;-30
2022/09/25 02:31:35;;;;;;;4.93;2.33;;;;;;;18.97;61.49;96210.59;10539607;28;20330;-30
2022/09/25 02:36:35;;;;;;;4.32;2.15;;;;;;;19.00;62.12;96212.25;10562304;28;20031;-30
2022/09/25 02:42:04;;;;;;;2.60;2.10;;;;;;;19.02;62.23;96208.00;10569884;28;20530;-30
2022/09/25 02:47:23;;;;;;;3.50;2.25;;;;;;;19.02;61.03;96195.31;10610642;27;20298;-29
2022/09/25 02:52:43;;;;;;;2.38;1.92;;;;;;;18.95;61.02;96186.94;10571517;27;20067;-29
2022/09/25 02:57:51;;;;;;;2.80;2.15;;;;;;;18.98;61.09;96184.38;10559121;28;20039;-30
2022/09/25 03:02:55;;;;;;;2.40;1.95;;;;;;;18.94;60.91;96186.94;10579555;28;20118;-30
2022/09/25 03:13:25;;;;;;;4.05;1.98;;;;;;;18.96;61.01;96178.47;10561290;28;20112;-29
2022/09/25 03:18:27;;;;;;;3.55;2.30;;;;;;;18.94;61.19;96179.34;10580144;28;20082;-30
2022/09/25 03:23:27;;;;;;;3.50;1.75;;;;;;;18.93;60.84;96175.94;10573367;28;20161;-29
2022/09/25 03:28:28;;;;;;;3.07;1.97;;;;;;;19.02;62.18;96192.78;10551841;28;20376;-30
2022/09/25 03:33:32;;;;;;;2.57;2.20;;;;;;;19.02;62.07;96185.19;10536794;28;20495;-30
2022/09/25 03:38:32;;;;;;;3.00;2.05;;;;;;;19.02;61.16;96196.16;10569977;28;20032;-29
2022/09/25 03:43:37;;;;;;;4.18;2.30;;;;;;;18.98;61.03;96186.91;10562906;27;20632;-29
2022/09/25 03:48:39;;;;;;;3.05;2.03;;;;;;;18.98;61.13;96193.66;10620735;27;20027;-30
2022/09/25 03:53:40;;;;;;;3.03;2.35;;;;;;;18.98;61.23;96186.03;10576981;27;20076;-29
2022/09/25 03:58:40;;;;;;;2.70;2.03;;;;;;;18.95;61.12;96178.47;10547975;28;20048;-30
2022/09/25 04:03:46;;;;;;;4.63;1.40;;;;;;;18.94;61.08;96180.19;10534381;28;20096;-30
2022/09/25 04:08:47;;;;;;;1.90;1.70;;;;;;;18.95;61.13;96175.94;10574960;28;20038;-29
2022/09/25 04:13:47;;;;;;;3.65;2.15;;;;;;;18.94;61.31;96179.34;10542851;28;20059;-30
2022/09/25 04:18:49;;;;;;;2.43;2.07;;;;;;;18.95;62.17;96186.94;10532056;28;20060;-29
2022/09/25 04:29:08;;;;;;;2.22;2.00;;;;;;;19.01;61.30;96186.84;10544136;28;20036;-30
2022/09/25 04:34:09;;;;;;;4.53;2.37;;;;;;;19.01;60.99;96188.56;10534806;28;20210;-30
2022/09/25 04:39:10;;;;;;;2.78;1.80;;;;;;;18.98;60.97;96191.13;10535236;27;20059;-29
2022/09/25 04:44:11;;;;;;;1.98;1.63;;;;;;;18.96;61.24;96197.91;10573803;27;20106;-29
2022/09/25 04:49:11;;;;;;;5.07;3.47;;;;;;;18.97;61.06;96197.91;10582101;27;20119;-29
2022/09/25 04:54:13;;;;;;;2.60;1.77;;;;;;;18.95;61.08;96202.16;10574046;28;20089;-29
2022/09/25 04:59:16;;;;;;;2.95;1.67;;;;;;;18.96;61.03;96208.06;10584652;27;20443;-29
2022/09/25 05:04:17;;;;;;;1.98;1.65;;;;;;;18.95;61.08;96203.84;10594032;27;20123;-29
2022/09/25 05:09:17;;;;;;;1.80;1.50;;;;;;;18.95;61.09;96206.38;10532870;28;20123;-29
2022/09/25 05:14:17;;;;;;;1.93;1.73;;;;;;;19.01;61.68;96213.94;10531768;28;20128;-29
2022/09/25 05:19:17;;;;;;;2.50;1.77;;;;;;;19.03;61.87;96207.16;10536631;28;20067;-30
2022/09/25 05:24:18;;;;;;;2.77;1.83;;;;;;;19.00;60.94;96212.25;10573802;28;20043;-30
2022/09/25 05:29:18;;;;;;;1.52;1.30;;;;;;;18.98;60.80;96212.28;10539419;28;20020;-29
2022/09/25 05:34:19;;;;;;;1.67;1.47;;;;;;;18.95;60.79;96208.91;10540956;28;20282;-30
2022/09/25 05:39:20;;;;;;;2.28;1.80;;;;;;;18.96;60.65;96218.22;10581476;27;20209;-29
2022/09/25 05:44:20;;;;;;;2.43;1.70;;;;;;;18.94;60.83;96213.16;10581105;28;20514;-29
2022/09/25 05:49:22;;;;;;;2.03;1.60;;;;;;;18.94;60.95;96214.84;10581013;28;20060;-30
2022/09/25 05:54:22;;;;;;;2.72;1.60;;;;;;;18.93;60.49;96210.63;10583146;28;20061;-30
2022/09/25 05:59:22;;;;;;;4.87;1.57;;;;;;;18.93;60.85;96220.78;10547673;28;20141;-32
2022/09/25 06:04:24;;;;;;;3.00;1.57;;;;;;;18.92;62.13;96219.09;10572021;28;20027;-29
2022/09/25 06:09:24;;;;;;;3.05;1.48;;;;;;;19.02;61.47;96230.84;10584719;27;20028;-29
2022/09/25 06:14:24;;;;;;;2.20;1.83;;;;;;;18.99;61.00;96228.34;10579611;28;20290;-30
2022/09/25 06:19:27;;;;;;;1.83;1.63;;;;;;;18.99;60.96;96233.41;10579087;28;20050;-31
2022/09/25 06:24:28;;;;;;;4.80;1.52;;;;;;;19.00;60.63;96240.16;10581475;28;20036;-30
2022/09/25 06:29:28;;;;;;;4.87;1.77;;;;;;;18.99;60.80;96243.56;10546135;28;20099;-30
2022/09/25 06:34:28;;;;;;;4.93;1.83;;;;;;;18.93;60.67;96234.28;10559146;27;20061;-30
2022/09/25 06:39:32;;;;;;;3.00;2.10;;;;;;;18.98;60.68;96241.84;10550439;27;20039;-30
2022/09/25 06:44:33;;;;;;;2.00;1.60;;;;;;;18.99;60.49;96243.56;10555623;27;20129;-30
2022/09/25 06:49:33;;;;;;;2.28;1.73;;;;;;;18.88;60.78;96222.50;10573778;27;20035;-31
2022/09/25 06:54:34;;;;;;;3.35;1.20;;;;;;;18.96;59.42;96241.91;10573727;28;20533;-31
2022/09/25 06:59:34;;;;;;;1.73;1.43;;;;;;;19.10;60.41;96250.19;10569796;27;20494;-30
2022/09/25 07:04:35;;;;;;;2.80;1.88;;;;;;;19.13;60.71;96251.88;10575473;28;20289;-29
2022/09/25 07:09:35;;;;;;;1.60;1.35;;;;;;;19.09;59.32;96240.06;10578154;28;20519;-29
2022/09/25 07:14:37;;;;;;;2.17;1.33;;;;;;;19.05;58.91;96234.19;10574033;28;20038;-31
2022/09/25 07:19:37;;;;;;;2.75;1.52;;;;;;;18.94;58.86;96230.06;10577680;28;20032;-29
2022/09/25 07:24:38;;;;;;;2.00;1.80;;;;;;;19.04;59.08;96246.88;10542029;27;20415;-29
2022/09/25 07:29:38;;;;;;;2.27;1.97;;;;;;;19.02;59.54;96243.53;10576319;28;20046;-29
2022/09/25 07:34:38;;;;;;;2.53;1.57;;;;;;;19.03;58.71;96246.06;10576901;28;20522;-29
2022/09/25 07:39:39;;;;;;;2.40;1.70;;;;;;;19.04;58.46;96246.88;10560298;28;20430;-30
2022/09/25 07:44:39;;;;;;;3.43;1.50;;;;;;;19.05;58.71;96248.56;10541077;28;20358;-29
2022/09/25 07:49:40;;;;;;;9.37;3.57;;;;;;;19.03;60.86;96256.22;10536721;28;20115;-29
2022/09/25 07:54:41;;;;;;;7.68;4.32;;;;;;;19.05;61.63;96253.63;10578348;28;20484;-30
2022/09/25 07:59:42;;;;;;;6.70;4.15;;;;;;;19.08;61.72;96246.00;10540257;28;20115;-30
2022/09/25 08:04:42;;;;;;;3.80;2.50;;;;;;;19.07;59.46;96241.75;10535340;28;20567;-29
2022/09/25 08:09:43;;;;;;;5.33;2.83;;;;;;;19.03;59.85;96242.66;10556392;28;20053;-30
2022/09/25 08:14:43;;;;;;;5.93;2.00;;;;;;;19.06;58.57;96240.09;10575056;28;20538;-29
2022/09/25 08:19:44;;;;;;;3.63;2.30;;;;;;;19.03;58.44;96240.97;10561680;28;20347;-30
2022/09/25 08:24:45;;;;;;;4.20;2.75;;;;;;;19.06;58.51;96240.09;10534438;28;20198;-29
2022/09/25 08:29:45;;;;;;;5.07;2.63;;;;;;;19.04;58.46;96241.81;10560402;28;20039;-30
2022/09/25 08:34:46;;;;;;;5.57;3.30;;;;;;;19.06;58.44;96247.69;10567032;28;20115;-31
2022/09/25 08:39:46;;;;;;;6.65;4.15;;;;;;;18.97;59.19;96240.19;10590683;27;20291;-30
2022/09/25 08:49:00;;;;;;;20.27;9.57;;;;;;;19.05;61.41;96248.56;10599846;27;20039;-29
2022/09/25 08:50:28;;;;;;;20.60;9.02;;;;;;;19.14;62.74;96251.00;10582794;27;20036;-30
2022/09/25 09:00:59;;;;;;;8.88;5.13;;;;;;;19.09;59.48;96240.06;10592820;27;20031;-29
2022/09/25 09:06:07;;;;;;;6.80;3.97;;;;;;;19.10;58.85;96246.84;10565244;27;20039;-29
2022/09/25 09:11:18;;;;;;;5.50;4.00;;;;;;;19.09;58.58;96247.69;10568194;28;20027;-30
2022/09/25 09:16:36;;;;;;;7.07;3.75;;;;;;;19.09;58.69;96240.06;10534822;28;20036;-29
2022/09/25 09:21:40;;;;;;;8.95;4.45;;;;;;;19.09;58.48;96250.22;10534702;28;20044;-27
2022/09/25 09:26:52;;;;;;;9.73;4.28;;;;;;;18.98;60.02;96242.72;10534579;28;20085;-29
2022/09/25 09:31:59;;;;;;;15.05;5.20;;;;;;;18.95;60.40;96234.28;10534248;28;20105;-30
2022/09/25 09:37:34;;;;;;;7.63;4.60;;;;;;;19.04;59.30;96245.19;10532700;28;20035;-30
2022/09/25 09:43:03;;;;;;;13.90;7.03;;;;;;;19.05;63.23;96235.88;10522882;28;20515;-29
2022/09/25 09:48:21;;;;;;;13.50;6.20;;;;;;;19.13;62.98;96246.78;10534499;28;20404;-30
2022/09/25 09:53:27;;;;;;;11.45;5.72;;;;;;;19.09;61.32;96240.06;10534459;28;20567;-30
2022/09/25 09:58:46;;;;;;;9.40;4.18;;;;;;;18.98;59.71;96229.16;10560928;28;20549;-29
2022/09/25 10:03:51;;;;;;;7.85;4.15;;;;;;;19.02;59.54;96228.31;10576068;28;20064;-29
2022/09/25 10:08:51;;;;;;;6.95;3.97;;;;;;;19.01;59.77;96226.63;10542486;28;20032;-29
2022/09/25 10:13:52;;;;;;;9.37;4.17;;;;;;;19.01;59.91;96221.56;10533433;28;20044;-29
2022/09/25 10:18:59;;;;;;;10.85;4.07;;;;;;;19.02;59.82;96233.38;10534045;28;20028;-30
2022/09/25 10:24:02;;;;;;;7.28;3.78;;;;;;;19.01;59.44;96226.63;10537029;28;20038;-29
2022/09/25 10:29:06;;;;;;;7.75;4.15;;;;;;;19.00;60.00;96227.50;10572616;28;20458;-30
2022/09/25 10:34:15;;;;;;;7.80;4.30;;;;;;;19.05;61.66;96228.25;10579235;28;20036;-30
2022/09/25 10:39:25;;;;;;;8.95;5.53;;;;;;;19.08;62.39;96231.63;10540826;28;20044;-29
2022/09/25 10:44:32;;;;;;;9.57;4.80;;;;;;;19.09;61.34;96219.78;10573144;28;20039;-30
2022/09/25 10:55:42;;;;;;;11.82;3.95;;;;;;;18.91;59.89;96214.91;10536705;28;20047;-30
2022/09/25 11:00:54;;;;;;;41.97;9.18;;;;;;;19.01;59.31;96224.09;10515827;28;20431;-30
2022/09/25 11:06:00;;;;;;;16.83;4.75;;;;;;;19.03;58.86;96235.06;10537450;28;20054;-30
2022/09/25 11:11:02;;;;;;;13.57;3.95;;;;;;;19.03;58.78;96240.13;10537888;28;20057;-29
2022/09/25 11:16:09;;;;;;;17.05;5.32;;;;;;;19.05;59.25;96235.88;10537457;28;20063;-30
2022/09/25 11:21:29;;;;;;;12.38;4.53;;;;;;;18.99;59.51;96228.34;10537066;28;20047;-29
2022/09/25 11:26:43;;;;;;;7.65;3.65;;;;;;;19.02;59.08;96233.38;10537129;28;20061;-30
2022/09/25 11:31:51;;;;;;;11.88;5.18;;;;;;;19.05;64.24;96235.88;10537336;28;20089;-29
2022/09/25 11:37:09;;;;;;;9.30;4.50;;;;;;;19.09;64.46;96235.00;10535652;28;20032;-30
2022/09/25 11:42:23;;;;;;;8.18;3.88;;;;;;;19.03;62.28;96229.97;10537502;28;20036;-30
2022/09/25 11:47:29;;;;;;;12.25;5.07;;;;;;;19.01;61.76;96231.69;10536412;28;20043;-29
2022/09/25 11:53:00;;;;;;;9.90;3.85;;;;;;;18.99;61.71;96225.81;10536619;28;20036;-30
2022/09/25 11:58:18;;;;;;;8.63;4.00;;;;;;;18.99;61.93;96225.81;10536302;28;20036;-29
2022/09/25 12:03:34;;;;;;;10.65;4.95;;;;;;;18.99;60.75;96224.09;10538825;28;20031;-30
2022/09/25 12:08:54;;;;;;;8.77;4.60;;;;;;;18.98;61.14;96221.56;10578083;28;20120;-30
2022/09/25 12:14:08;;;;;;;8.60;4.20;;;;;;;18.96;60.38;96215.66;10546832;28;20071;-30
2022/09/25 12:19:22;;;;;;;5.40;3.70;;;;;;;19.00;59.54;96214.81;10535418;28;20162;-31
2022/09/25 12:24:31;;;;;;;7.43;4.30;;;;;;;19.00;60.47;96217.34;10535204;28;20055;-29
2022/09/25 12:29:46;;;;;;;6.68;3.95;;;;;;;19.08;64.04;96210.50;10535045;28;20215;-29
2022/09/25 12:35:05;;;;;;;6.13;3.67;;;;;;;19.09;62.26;96209.63;10535098;28;20028;-31
2022/09/25 12:40:16;;;;;;;8.40;3.97;;;;;;;19.02;61.36;96200.41;10534520;28;20537;-30
2022/09/25 12:45:42;;;;;;;5.63;3.63;;;;;;;18.99;61.33;96196.19;10534006;28;20040;-30
2022/09/25 12:51:00;;;;;;;7.38;3.97;;;;;;;18.97;61.85;96197.06;10550034;28;20036;-30
2022/09/25 12:56:24;;;;;;;6.43;3.40;;;;;;;18.97;61.46;96194.53;10569178;28;20178;-29
2022/09/25 13:01:24;;;;;;;7.63;3.10;;;;;;;18.98;60.90;96191.97;10533912;28;20036;-30
2022/09/25 13:06:38;;;;;;;6.07;3.25;;;;;;;18.98;60.91;96197.06;10533535;28;20028;-30
2022/09/25 13:11:57;;;;;;;5.38;3.05;;;;;;;18.96;59.59;96192.84;10544433;28;20108;-31
2022/09/25 13:16:57;;;;;;;5.07;3.08;;;;;;;18.98;59.75;96188.59;10575429;28;20036;-29
2022/09/25 13:22:24;;;;;;;7.50;4.38;;;;;;;19.02;62.58;96188.53;10554010;28;20559;-30
2022/09/25 13:27:25;;;;;;;6.78;3.30;;;;;;;19.04;62.74;96173.31;10524558;28;20122;-29
2022/09/25 13:32:33;;;;;;;6.65;3.53;;;;;;;19.04;62.24;96191.06;10533532;28;20134;-30
2022/09/25 13:37:37;;;;;;;7.45;3.80;;;;;;;19.02;60.93;96192.78;10532573;28;20032;-29
2022/09/25 13:42:45;;;;;;;4.70;3.13;;;;;;;19.01;60.49;96188.56;10532725;28;20036;-30
2022/09/25 13:48:08;;;;;;;3.45;2.90;;;;;;;19.00;59.15;96202.13;10532586;28;20043;-31
2022/09/25 13:53:19;;;;;;;5.20;3.22;;;;;;;19.00;59.19;96207.19;10533024;28;20105;-30
2022/09/25 13:58:22;;;;;;;4.65;3.20;;;;;;;19.02;59.05;96223.22;10535052;28;20075;-30
2022/09/25 14:03:44;;;;;;;6.00;2.85;;;;;;;19.01;59.04;96227.44;10540543;28;20028;-29
2022/09/25 14:08:46;;;;;;;5.57;2.85;;;;;;;18.99;58.94;96228.34;10541485;28;20059;-30
2022/09/25 14:13:50;;;;;;;6.45;3.85;;;;;;;19.01;58.88;96229.16;10539998;28;20063;-32
2022/09/25 14:18:52;;;;;;;4.65;3.47;;;;;;;19.03;62.57;96219.84;10540202;28;20036;-30
2022/09/25 14:23:54;;;;;;;4.93;3.47;;;;;;;19.12;62.74;96222.28;10574532;28;20028;-29
2022/09/25 14:28:57;;;;;;;4.90;3.00;;;;;;;19.04;60.04;96217.28;10551403;28;20063;-29
2022/09/25 14:34:08;;;;;;;6.10;3.30;;;;;;;19.10;59.33;96213.84;10540253;28;20043;-29
2022/09/25 14:39:38;;;;;;;5.55;4.07;;;;;;;19.07;59.59;96209.63;10555357;27;20040;-30
2022/09/25 14:45:05;;;;;;;4.25;3.50;;;;;;;19.02;58.99;96197.84;10589007;27;20031;-30
2022/09/25 14:50:06;;;;;;;5.83;3.57;;;;;;;19.05;59.19;96207.97;10579237;27;20054;-30
2022/09/25 14:55:15;;;;;;;9.20;4.45;;;;;;;19.04;59.43;96206.28;10594822;27;20514;-30
2022/09/25 15:00:23;;;;;;;5.65;4.53;;;;;;;19.05;59.15;96202.88;10594772;27;20040;-31
2022/09/25 15:05:28;;;;;;;11.52;3.90;;;;;;;19.04;58.92;96201.22;10579424;27;20085;-31
2022/09/25 15:10:34;;;;;;;6.18;3.15;;;;;;;19.03;59.06;96195.31;10596954;27;20032;-30
2022/09/25 15:15:37;;;;;;;12.32;4.32;;;;;;;19.07;62.30;96191.03;10603260;27;20415;-30
2022/09/25 15:20:46;;;;;;;16.45;4.97;;;;;;;19.13;61.98;96193.50;10585558;27;20035;-30
2022/09/25 15:25:50;;;;;;;8.40;4.28;;;;;;;19.12;60.84;96204.50;10555462;28;20130;-30
2022/09/25 15:30:56;;;;;;;9.75;3.78;;;;;;;19.08;61.28;96202.88;10596801;27;20035;-30
2022/09/25 15:36:14;;;;;;;10.80;3.80;;;;;;;19.05;60.90;96211.34;10620754;27;20039;-30
2022/09/25 15:41:15;;;;;;;6.85;4.22;;;;;;;19.08;60.96;96210.50;10576500;27;20356;-30
2022/09/25 15:46:33;;;;;;;9.15;3.63;;;;;;;19.08;60.81;96215.56;10593071;27;20164;-31
2022/09/25 15:51:35;;;;;;;8.10;3.78;;;;;;;19.03;61.09;96210.53;10584340;27;20380;-29
2022/09/25 15:56:45;;;;;;;7.28;4.40;;;;;;;19.03;61.55;96205.47;10591449;27;20426;-31
2022/09/25 16:07:26;;;;;;;21.45;6.25;;;;;;;19.05;62.20;96197.81;10556063;27;20057;-31
2022/09/25 16:12:29;;;;;;;14.88;7.82;;;;;;;19.14;65.03;96195.19;10554115;27;20040;-30
2022/09/25 16:17:31;;;;;;;16.00;8.80;;;;;;;19.16;63.98;96206.19;10549690;28;20161;-30
2022/09/25 16:22:39;;;;;;;9.30;6.57;;;;;;;19.11;63.23;96197.75;10534919;28;20116;-30
2022/09/25 16:27:43;;;;;;;13.52;6.38;;;;;;;19.10;64.10;96201.16;10553425;28;20023;-31
2022/09/25 16:32:47;;;;;;;16.70;7.35;;;;;;;19.03;62.24;96199.53;10576814;28;20387;-31
2022/09/25 16:37:50;;;;;;;14.75;7.15;;;;;;;19.08;64.24;96213.03;10543103;28;20036;-30
2022/09/25 16:42:53;;;;;;;13.23;7.10;;;;;;;19.04;64.14;96208.81;10533896;28;20032;-30
2022/09/25 16:47:57;;;;;;;10.45;6.45;;;;;;;19.02;61.30;96208.84;10574168;27;20059;-31
2022/09/25 16:52:59;;;;;;;11.05;6.15;;;;;;;19.04;61.45;96213.91;10533588;28;20680;-30
2022/09/25 16:58:01;;;;;;;24.10;7.15;;;;;;;19.09;62.92;96207.09;10563060;27;20482;-30
2022/09/25 17:03:01;;;;;;;14.48;7.80;;;;;;;19.33;62.70;96205.16;10575639;28;20042;-30
2022/09/25 17:08:19;;;;;;;21.00;7.40;;;;;;;19.54;60.99;96198.97;10539637;28;20530;-30
2022/09/25 17:13:27;;;;;;;21.38;11.60;;;;;;;19.71;63.06;96203.00;10534368;28;20113;-30
2022/09/25 17:18:28;;;;;;;23.85;10.98;;;;;;;19.40;63.43;96205.91;10608623;27;20060;-30
2022/09/25 17:23:29;;;;;;;19.70;10.57;;;;;;;19.28;63.51;96211.13;10540676;27;20139;-30
2022/09/25 17:28:31;;;;;;;19.55;11.77;;;;;;;19.22;63.97;96211.19;10586624;27;20303;-32
2022/09/25 17:33:32;;;;;;;17.50;10.63;;;;;;;19.18;63.16;96214.59;10569914;28;20031;-30
2022/09/25 17:38:33;;;;;;;20.43;11.47;;;;;;;19.17;64.08;96225.63;10544826;28;20032;-30
2022/09/25 17:43:33;;;;;;;16.08;10.20;;;;;;;19.13;63.66;96229.03;10557377;28;20069;-30
2022/09/25 17:48:34;;;;;;;11.93;9.43;;;;;;;19.07;63.54;96252.78;10561567;28;20123;-30
2022/09/25 17:53:34;;;;;;;11.52;7.38;;;;;;;19.04;62.33;96252.81;10589330;28;20289;-30
2022/09/25 17:58:35;;;;;;;15.55;9.93;;;;;;;19.09;62.37;96261.19;10573087;28;20071;-31
2022/09/25 18:03:36;;;;;;;15.45;9.48;;;;;;;19.15;64.35;96266.22;10563462;28;20426;-34
2022/09/25 18:08:37;;;;;;;16.17;10.73;;;;;;;19.19;64.68;96272.16;10526824;28;20032;-30
2022/09/25 18:13:38;;;;;;;18.17;10.18;;;;;;;19.18;63.93;96280.59;10540916;28;20077;-31
2022/09/25 18:23:57;;;;;;;16.40;9.65;;;;;;;19.14;63.80;96286.53;10561235;28;20540;-31
2022/09/25 18:28:58;;;;;;;16.80;9.97;;;;;;;19.09;63.70;96285.75;10527525;28;20097;-29
2022/09/25 18:33:58;;;;;;;14.07;10.87;;;;;;;19.07;63.99;96293.38;10539713;28;20058;-30
2022/09/25 18:38:58;;;;;;;13.17;9.87;;;;;;;19.07;63.15;96295.03;10573462;28;20533;-30
2022/09/25 18:43:59;;;;;;;15.40;8.75;;;;;;;19.06;62.15;96295.91;10569330;27;20043;-31
2022/09/25 18:48:59;;;;;;;14.88;10.45;;;;;;;19.08;63.29;96299.28;10574477;28;20509;-30
2022/09/25 18:54:00;;;;;;;17.63;11.43;;;;;;;19.14;65.33;96311.91;10576591;28;20415;-31
2022/09/25 18:59:04;;;;;;;14.95;10.45;;;;;;;19.16;65.92;96308.50;10574304;28;20119;-31
2022/09/25 19:04:05;;;;;;;12.32;9.95;;;;;;;19.14;63.28;96310.22;10570225;28;20124;-30
2022/09/25 19:09:06;;;;;;;12.45;9.00;;;;;;;19.14;63.54;96306.81;10575613;28;20062;-31
2022/09/25 19:14:06;;;;;;;12.38;8.60;;;;;;;19.12;63.51;96311.94;10571568;28;20194;-30
2022/09/25 19:19:06;;;;;;;12.70;9.10;;;;;;;19.08;63.13;96317.06;10575161;28;20499;-30
2022/09/25 19:24:08;;;;;;;12.40;9.57;;;;;;;19.06;63.76;96316.19;10572781;27;20050;-29
2022/09/25 19:29:09;;;;;;;13.95;9.05;;;;;;;19.07;63.71;96321.28;10581756;27;20035;-30
2022/09/25 19:34:10;;;;;;;13.60;8.90;;;;;;;19.09;63.40;96323.81;10587341;27;20376;-31
2022/09/25 19:39:10;;;;;;;10.43;8.13;;;;;;;19.07;62.06;96322.97;10593318;27;20035;-29
2022/09/25 19:44:12;;;;;;;10.67;8.43;;;;;;;19.06;62.80;96326.34;10590613;27;20065;-31
2022/09/25 19:49:15;;;;;;;10.52;8.30;;;;;;;19.08;63.81;96329.75;10590770;27;20526;-32
2022/09/25 19:54:16;;;;;;;12.07;8.90;;;;;;;19.12;64.53;96324.63;10592135;27;20038;-31
2022/09/25 19:59:16;;;;;;;11.10;8.77;;;;;;;19.13;63.93;96328.00;10590120;27;20050;-30
2022/09/25 20:04:16;;;;;;;9.93;8.25;;;;;;;19.06;63.15;96318.75;10586465;27;20100;-30
2022/09/25 20:09:17;;;;;;;10.80;7.57;;;;;;;19.04;63.36;96334.00;10571915;28;20083;-30
2022/09/25 20:14:24;;;;;;;9.57;7.47;;;;;;;19.02;62.76;96327.25;10536929;28;20543;-30
2022/09/25 20:19:25;;;;;;;;;;;;;;;19.05;63.25;96324.69;10531892;28;20051;-30
2022/09/25 20:24:25;;;;;;;8.52;7.20;;;;;;;19.04;63.48;96328.06;10568079;28;19922;-30
2022/09/25 20:29:26;;;;;;;7.50;6.67;;;;;;;19.04;63.38;96331.47;10572677;28;20040;-30
2022/09/25 20:34:26;;;;;;;8.57;7.10;;;;;;;19.04;63.45;96343.28;10573048;28;20329;-32
2022/09/25 20:39:27;;;;;;;9.17;7.23;;;;;;;19.03;63.02;96341.59;10541220;28;20042;-30
2022/09/25 20:44:27;;;;;;;10.90;7.53;;;;;;;19.05;63.46;96339.91;10540248;28;20043;-30
2022/09/25 20:49:27;;;;;;;13.17;7.47;;;;;;;19.05;64.89;96317.91;10533641;28;20122;-30
2022/09/25 20:54:28;;;;;;;9.98;7.30;;;;;;;19.12;66.14;96331.38;10533173;28;20043;-29
2022/09/25 20:59:28;;;;;;;7.95;6.32;;;;;;;19.09;63.10;96334.78;10534167;28;20032;-30
2022/09/25 21:04:28;;;;;;;8.27;6.93;;;;;;;19.07;63.11;96330.56;10563932;28;20032;-30
2022/09/25 21:09:30;;;;;;;7.47;6.53;;;;;;;19.06;63.22;96328.88;10533654;28;20130;-30
2022/09/25 21:14:32;;;;;;;8.02;6.60;;;;;;;19.06;63.46;96326.34;10531412;28;20431;-30
2022/09/25 21:19:33;;;;;;;7.93;6.30;;;;;;;19.04;63.54;96313.69;10532401;28;20142;-30
2022/09/25 21:24:33;;;;;;;10.52;6.90;;;;;;;19.05;63.37;96319.59;10531865;28;20050;-30
2022/09/25 21:29:34;;;;;;;9.00;6.85;;;;;;;19.02;63.69;96314.56;10532918;28;20495;-31
2022/09/25 21:34:35;;;;;;;9.35;7.13;;;;;;;19.03;62.70;96316.25;10532623;28;20384;-30
2022/09/25 21:39:35;;;;;;;7.87;5.87;;;;;;;19.03;63.78;96312.03;10571013;28;20139;-30
2022/09/25 21:44:36;;;;;;;7.93;6.60;;;;;;;19.04;65.26;96298.47;10537198;28;20047;-30
2022/09/25 21:49:38;;;;;;;8.48;6.53;;;;;;;19.11;64.91;96309.41;10532180;28;20028;-30
2022/09/25 21:54:38;;;;;;;8.32;5.60;;;;;;;19.12;63.25;96309.41;10532125;28;20031;-30
2022/09/25 21:59:40;;;;;;;6.47;5.73;;;;;;;19.08;63.02;96310.25;10568596;28;20447;-31
2022/09/25 22:04:40;;;;;;;8.65;5.70;;;;;;;19.07;63.02;96317.88;10562723;28;20243;-31
2022/09/25 22:09:41;;;;;;;7.50;5.93;;;;;;;19.05;63.07;96304.38;10532496;28;20036;-30
2022/09/25 22:14:41;;;;;;;6.75;5.95;;;;;;;19.03;63.29;96303.56;10532228;28;20286;-30
2022/09/25 22:19:41;;;;;;;10.00;6.57;;;;;;;19.03;63.16;96311.16;10535020;28;20043;-30
2022/09/25 22:24:42;;;;;;;6.50;5.47;;;;;;;19.01;63.31;96305.28;10540210;28;20040;-30
2022/09/25 22:29:42;;;;;;;7.67;6.00;;;;;;;18.99;63.44;96296.84;10539726;28;20317;-30
2022/09/25 22:34:42;;;;;;;9.13;5.83;;;;;;;19.01;63.46;96295.94;10538957;28;20445;-30
2022/09/25 22:39:43;;;;;;;7.35;5.85;;;;;;;19.00;62.89;96301.88;10539485;28;20036;-31
2022/09/25 22:44:43;;;;;;;8.70;5.68;;;;;;;19.03;64.85;96301.00;10538912;28;20035;-31
2022/09/25 22:49:44;;;;;;;6.10;5.50;;;;;;;19.12;64.63;96295.84;10539666;28;20032;-30
2022/09/25 22:54:44;;;;;;;6.93;5.37;;;;;;;19.05;62.98;96306.91;10538700;28;20274;-29
2022/09/25 22:59:44;;;;;;;7.77;5.33;;;;;;;19.06;62.80;96303.50;10538732;28;20219;-30
2022/09/25 23:04:48;;;;;;;7.70;5.70;;;;;;;19.01;62.77;96297.66;10526787;28;20040;-31
2022/09/25 23:09:48;;;;;;;8.57;6.07;;;;;;;19.03;63.02;96301.00;10502890;28;20074;-30
2022/09/25 23:14:48;;;;;;;6.10;5.13;;;;;;;19.01;63.03;96298.47;10495051;28;20028;-31
2022/09/25 23:19:49;;;;;;;5.30;4.80;;;;;;;18.99;63.01;96282.44;10501453;28;20036;-30
2022/09/25 23:24:49;;;;;;;6.27;5.20;;;;;;;18.99;63.37;96281.63;10538179;28;20551;-30
2022/09/25 23:29:49;;;;;;;9.10;6.57;;;;;;;18.99;63.18;96284.16;10498577;28;20107;-30
2022/09/25 23:34:50;;;;;;;5.23;4.73;;;;;;;18.99;63.37;96284.97;10495489;28;20295;-30
2022/09/25 23:39:50;;;;;;;6.17;5.53;;;;;;;19.01;64.59;96278.19;10506914;28;20480;-30
2022/09/25 23:44:50;;;;;;;7.63;5.60;;;;;;;19.07;64.39;96262.91;10559978;27;20037;-30
2022/09/25 23:49:51;;;;;;;7.07;4.93;;;;;;;19.10;63.41;96256.97;10537761;28;20111;-30
2022/09/25 23:54:51;;;;;;;5.47;4.07;;;;;;;19.04;62.86;96241.81;10494377;28;20064;-30
2022/09/25 23:59:51;;;;;;;7.40;5.67;;;;;;;19.04;62.79;96251.97;10494576;28;20287;-32
